Time;durP1;ratioP1;P1;durP2;ratioP2;P2;SDS_P1;SDS_P2;PMS_P1;PMS_P2;Temp;Humidity;BMP_temperature;BMP_pressure;BME280_temperature;BME280_humidity;BME280_pressure;Samples;Min_cycle;Max_cycle;Signal;HPM_P1;HPM_P2
2022/08/08 00:00:42;;;;;;;;;;;;;;;;;;2115354;28;20262;-45
2022/08/08 00:01:57;;;;;;;;;;;;;;;;;;2115119;28;19978;-46
2022/08/08 00:03:18;;;;;;;;;;;;;;;;;;2115546;28;19968;-45
2022/08/08 00:04:32;;;;;;;;;;;;;;;;;;2115276;28;19931;-45
2022/08/08 00:05:33;;;;;;;;;;;;;;;;;;2115397;28;19930;-46
2022/08/08 00:06:44;;;;;;;;;;;;;;;;;;2115241;28;20296;-46
2022/08/08 00:07:45;;;;;;;;;;;;;;;;;;2115297;28;19996;-46
2022/08/08 00:08:46;;;;;;;;;;;;;;;;;;2114938;28;19924;-45
2022/08/08 00:09:49;;;;;;;;;;;;;;;;;;2115176;28;19924;-45
2022/08/08 00:10:53;;;;;;;;;;;;;;;;;;2115538;28;19938;-45
2022/08/08 00:11:53;;;;;;;;;;;;;;;;;;2107130;28;19963;-44
2022/08/08 00:13:08;;;;;;;;;;;;;;;;;;2106884;28;20015;-44
2022/08/08 00:14:10;;;;;;;;;;;;;;;;;;2106948;28;19928;-44
2022/08/08 00:15:18;;;;;;;;;;;;;;;;;;2106960;28;19924;-44
2022/08/08 00:16:24;;;;;;;;;;;;;;;;;;2106889;28;19973;-46
2022/08/08 00:17:25;;;;;;;;;;;;;;;;;;2106842;28;20046;-46
2022/08/08 00:18:26;;;;;;;;;;;;;;;;;;2106959;28;19981;-46
2022/08/08 00:19:27;;;;;;;;;;;;;;;;;;2106830;28;20015;-45
2022/08/08 00:20:28;;;;;;;;;;;;;;;;;;2106709;28;19967;-45
2022/08/08 00:21:29;;;;;;;;;;;;;;;;;;2107116;28;19930;-46
2022/08/08 00:22:29;;;;;;;;;;;;;;;;;;2106756;28;19940;-46
2022/08/08 00:23:31;;;;;;;;;;;;;;;;;;2106888;28;20011;-46
2022/08/08 00:24:43;;;;;;;;;;;;;;;;;;2106854;28;19935;-45
2022/08/08 00:25:44;;;;;;;;;;;;;;;;;;2106774;28;20031;-46
2022/08/08 00:26:50;;;;;;;;;;;;;;;;;;2106688;28;19931;-46
2022/08/08 00:27:51;;;;;;;;;;;;;;;;;;2106812;28;19924;-46
2022/08/08 00:28:52;;;;;;;;;;;;;;;;;;2106849;28;20011;-49
2022/08/08 00:29:53;;;;;;;;;;;;;;;;;;2106676;28;19981;-46
2022/08/08 00:30:54;;;;;;;;;;;;;;;;;;2106622;28;19963;-47
2022/08/08 00:32:01;;;;;;;;;;;;;;;;;;2106501;28;20396;-49
2022/08/08 00:33:22;;;;;;;;;;;;;;;;;;2106571;28;19935;-45
2022/08/08 00:35:46;;;;;;;;;;;;;;;;;;2106675;28;19954;-49
2022/08/08 00:36:48;;;;;;;;;;;;;;;;;;2106624;28;20381;-47
2022/08/08 00:37:52;;;;;;;;;;;;;;;;;;2106781;28;19928;-50
2022/08/08 00:39:01;;;;;;;;;;;;;;;;;;2106780;28;20006;-49
2022/08/08 00:40:03;;;;;;;;;;;;;;;;;;2106638;28;20369;-46
2022/08/08 00:41:24;;;;;;;;;;;;;;;;;;2106430;28;20395;-49
2022/08/08 00:42:44;;;;;;;;;;;;;;;;;;2106892;28;19946;-47
2022/08/08 00:43:46;;;;;;;;;;;;;;;;;;2106713;28;19939;-46
2022/08/08 00:44:59;;;;;;;;;;;;;;;;;;2106561;28;19928;-46
2022/08/08 00:46:00;;;;;;;;;;;;;;;;;;2106520;28;19924;-48
2022/08/08 00:47:01;;;;;;;;;;;;;;;;;;2106411;28;20365;-49
2022/08/08 00:48:04;;;;;;;;;;;;;;;;;;2106528;28;20010;-48
2022/08/08 00:49:06;;;;;;;;;;;;;;;;;;2106625;28;19924;-47
2022/08/08 00:50:12;;;;;;;;;;;;;;;;;;2106453;28;19924;-49
2022/08/08 00:51:12;;;;;;;;;;;;;;;;;;2106485;28;20395;-50
2022/08/08 00:52:16;;;;;;;;;;;;;;;;;;2106510;28;20434;-47
2022/08/08 00:53:20;;;;;;;;;;;;;;;;;;2106547;28;19924;-47
2022/08/08 00:54:21;;;;;;;;;;;;;;;;;;2106624;28;20002;-47
2022/08/08 00:55:22;;;;;;;;;;;;;;;;;;2106519;28;19924;-47
2022/08/08 00:56:43;;;;;;;;;;;;;;;;;;2106476;28;19936;-47
2022/08/08 00:57:43;;;;;;;;;;;;;;;;;;2106514;28;19924;-47
2022/08/08 00:58:44;;;;;;;;;;;;;;;;;;2106478;28;19958;-46
2022/08/08 00:59:54;;;;;;;;;;;;;;;;;;2106512;28;20434;-47
2022/08/08 01:00:55;;;;;;;;;;;;;;;;;;2106462;28;20002;-50
2022/08/08 01:01:56;;;;;;;;;;;;;;;;;;2106370;28;19928;-46
2022/08/08 01:03:02;;;;;;;;;;;;;;;;;;2106422;28;19924;-46
2022/08/08 01:04:23;;;;;;;;;;;;;;;;;;2106448;28;20025;-48
2022/08/08 01:05:30;;;;;;;;;;;;;;;;;;2114581;28;19938;-47
2022/08/08 01:06:50;;;;;;;;;;;;;;;;;;2106317;28;20297;-47
2022/08/08 01:07:51;;;;;;;;;;;;;;;;;;2106588;28;19924;-47
2022/08/08 01:08:56;;;;;;;;;;;;;;;;;;2106317;28;19924;-46
2022/08/08 01:09:57;;;;;;;;;;;;;;;;;;2106274;28;19967;-45
2022/08/08 01:10:58;;;;;;;;;;;;;;;;;;2106446;28;19959;-48
2022/08/08 01:11:59;;;;;;;;;;;;;;;;;;2114872;28;19928;-47
2022/08/08 01:13:00;;;;;;;;;;;;;;;;;;2115033;28;19924;-45
2022/08/08 01:14:01;;;;;;;;;;;;;;;;;;2114829;28;19923;-44
2022/08/08 01:15:01;;;;;;;;;;;;;;;;;;2114709;28;19923;-45
2022/08/08 01:16:02;;;;;;;;;;;;;;;;;;2115045;28;19931;-48
2022/08/08 01:17:03;;;;;;;;;;;;;;;;;;2114781;28;19924;-47
2022/08/08 01:18:05;;;;;;;;;;;;;;;;;;2114937;28;20544;-47
2022/08/08 01:19:06;;;;;;;;;;;;;;;;;;2114766;28;20347;-49
2022/08/08 01:20:14;;;;;;;;;;;;;;;;;;2114762;28;19924;-48
2022/08/08 01:21:15;;;;;;;;;;;;;;;;;;2114740;28;20031;-47
2022/08/08 01:22:16;;;;;;;;;;;;;;;;;;2115154;28;19959;-45
2022/08/08 01:23:23;;;;;;;;;;;;;;;;;;2114672;28;19924;-45
2022/08/08 01:24:44;;;;;;;;;;;;;;;;;;2114719;28;19923;-46
2022/08/08 01:25:54;;;;;;;;;;;;;;;;;;2114887;28;19967;-44
2022/08/08 01:26:55;;;;;;;;;;;;;;;;;;2114788;28;19923;-44
2022/08/08 01:27:56;;;;;;;;;;;;;;;;;;2114719;28;19974;-44
2022/08/08 01:29:00;;;;;;;;;;;;;;;;;;2114665;28;19988;-45
2022/08/08 01:30:01;;;;;;;;;;;;;;;;;;2114491;28;19940;-45
2022/08/08 01:31:04;;;;;;;;;;;;;;;;;;2114619;28;19928;-45
2022/08/08 01:32:06;;;;;;;;;;;;;;;;;;2115142;28;19924;-49
2022/08/08 01:33:15;;;;;;;;;;;;;;;;;;2115033;28;19923;-47
2022/08/08 01:34:28;;;;;;;;;;;;;;;;;;2114653;28;19924;-47
2022/08/08 01:35:29;;;;;;;;;;;;;;;;;;2114721;28;19966;-45
2022/08/08 01:36:31;;;;;;;;;;;;;;;;;;2114532;28;20384;-48
2022/08/08 01:37:32;;;;;;;;;;;;;;;;;;2114836;28;19923;-47
2022/08/08 01:38:52;;;;;;;;;;;;;;;;;;2114525;28;19931;-45
2022/08/08 01:39:53;;;;;;;;;;;;;;;;;;2114786;28;19978;-47
2022/08/08 01:40:54;;;;;;;;;;;;;;;;;;2114595;28;19932;-46
2022/08/08 01:41:55;;;;;;;;;;;;;;;;;;2114544;28;19924;-47
2022/08/08 01:42:56;;;;;;;;;;;;;;;;;;2114774;28;19923;-46
2022/08/08 01:43:57;;;;;;;;;;;;;;;;;;2114867;28;20015;-46
2022/08/08 01:44:58;;;;;;;;;;;;;;;;;;2114609;28;19973;-48
2022/08/08 01:45:59;;;;;;;;;;;;;;;;;;2114579;28;19935;-46
2022/08/08 01:46:59;;;;;;;;;;;;;;;;;;2114693;28;19967;-46
2022/08/08 01:48:00;;;;;;;;;;;;;;;;;;2114729;28;20010;-45
2022/08/08 01:49:15;;;;;;;;;;;;;;;;;;2114704;28;19928;-44
2022/08/08 01:50:23;;;;;;;;;;;;;;;;;;2114509;28;19930;-44
2022/08/08 01:51:26;;;;;;;;;;;;;;;;;;2114726;28;19924;-44
2022/08/08 01:52:32;;;;;;;;;;;;;;;;;;2114693;28;20371;-44
2022/08/08 01:53:53;;;;;;;;;;;;;;;;;;2114616;28;19953;-45
2022/08/08 01:55:14;;;;;;;;;;;;;;;;;;2114807;28;19924;-44
2022/08/08 01:56:35;;;;;;;;;;;;;;;;;;2114494;28;19923;-44
2022/08/08 01:57:37;;;;;;;;;;;;;;;;;;2114756;28;19955;-46
2022/08/08 01:58:58;;;;;;;;;;;;;;;;;;2114775;28;19991;-45
2022/08/08 01:59:59;;;;;;;;;;;;;;;;;;2114562;28;19928;-45
2022/08/08 02:01:03;;;;;;;;;;;;;;;;;;2114398;28;19924;-46
2022/08/08 02:02:04;;;;;;;;;;;;;;;;;;2114539;28;20280;-44
2022/08/08 02:03:06;;;;;;;;;;;;;;;;;;2115021;28;19928;-45
2022/08/08 02:04:07;;;;;;;;;;;;;;;;;;2116173;28;19923;-44
2022/08/08 02:05:09;;;;;;;;;;;;;;;;;;2116039;28;19935;-45
2022/08/08 02:06:10;;;;;;;;;;;;;;;;;;2115861;28;19935;-44
2022/08/08 02:07:31;;;;;;;;;;;;;;;;;;2116041;28;19924;-45
2022/08/08 02:08:41;;;;;;;;;;;;;;;;;;2116458;28;19963;-46
2022/08/08 02:09:46;;;;;;;;;;;;;;;;;;2116305;28;20004;-45
2022/08/08 02:11:04;;;;;;;;;;;;;;;;;;2114948;28;20060;-45
2022/08/08 02:12:05;;;;;;;;;;;;;;;;;;2107518;28;19985;-44
2022/08/08 02:13:06;;;;;;;;;;;;;;;;;;2107673;28;20432;-45
2022/08/08 02:14:07;;;;;;;;;;;;;;;;;;2107596;28;19924;-48
2022/08/08 02:15:08;;;;;;;;;;;;;;;;;;2107536;28;19933;-44
2022/08/08 02:16:11;;;;;;;;;;;;;;;;;;2107517;28;19966;-45
2022/08/08 02:17:22;;;;;;;;;;;;;;;;;;2107628;28;19928;-45
2022/08/08 02:18:23;;;;;;;;;;;;;;;;;;2107534;28;20401;-44
2022/08/08 02:19:24;;;;;;;;;;;;;;;;;;2107560;28;20284;-45
2022/08/08 02:20:42;;;;;;;;;;;;;;;;;;2107759;28;19935;-44
2022/08/08 02:23:21;;;;;;;;;;;;;;;;;;2107694;28;19947;-45
2022/08/08 02:24:22;;;;;;;;;;;;;;;;;;2107691;28;19928;-44
2022/08/08 02:25:41;;;;;;;;;;;;;;;;;;2107683;28;19923;-44
2022/08/08 02:26:47;;;;;;;;;;;;;;;;;;2107553;28;19924;-46
2022/08/08 02:27:48;;;;;;;;;;;;;;;;;;2107797;28;19924;-46
2022/08/08 02:28:49;;;;;;;;;;;;;;;;;;2107591;28;20460;-46
2022/08/08 02:29:52;;;;;;;;;;;;;;;;;;2107657;28;19924;-47
2022/08/08 02:30:53;;;;;;;;;;;;;;;;;;2107432;28;19936;-47
2022/08/08 02:31:58;;;;;;;;;;;;;;;;;;2110108;28;19928;-47
2022/08/08 02:33:01;;;;;;;;;;;;;;;;;;2115742;28;20348;-47
2022/08/08 02:34:02;;;;;;;;;;;;;;;;;;2115775;28;19950;-46
2022/08/08 02:35:09;;;;;;;;;;;;;;;;;;2115896;28;20098;-46
2022/08/08 02:36:27;;;;;;;;;;;;;;;;;;2115936;28;20002;-47
2022/08/08 02:37:28;;;;;;;;;;;;;;;;;;2115771;28;19924;-47
2022/08/08 02:38:49;;;;;;;;;;;;;;;;;;2115902;28;19931;-47
2022/08/08 02:39:51;;;;;;;;;;;;;;;;;;2115868;28;20377;-47
2022/08/08 02:40:58;;;;;;;;;;;;;;;;;;2115994;28;19947;-47
2022/08/08 02:41:59;;;;;;;;;;;;;;;;;;2115724;28;20381;-47
2022/08/08 02:43:06;;;;;;;;;;;;;;;;;;2115772;28;19974;-47
2022/08/08 02:44:27;;;;;;;;;;;;;;;;;;2115936;28;19927;-47
2022/08/08 02:45:39;;;;;;;;;;;;;;;;;;2116106;28;19928;-44
2022/08/08 02:46:54;;;;;;;;;;;;;;;;;;2115883;28;19954;-44
2022/08/08 02:47:55;;;;;;;;;;;;;;;;;;2116090;28;19981;-44
2022/08/08 02:48:56;;;;;;;;;;;;;;;;;;2115712;28;20356;-44
2022/08/08 02:49:57;;;;;;;;;;;;;;;;;;2115883;28;19966;-45
2022/08/08 02:50:58;;;;;;;;;;;;;;;;;;2115653;28;20007;-45
2022/08/08 02:51:59;;;;;;;;;;;;;;;;;;2115891;28;20389;-44
2022/08/08 02:53:02;;;;;;;;;;;;;;;;;;2115740;28;19945;-45
2022/08/08 02:54:03;;;;;;;;;;;;;;;;;;2115736;28;20281;-44
2022/08/08 02:55:03;;;;;;;;;;;;;;;;;;2115672;28;19973;-45
2022/08/08 02:56:04;;;;;;;;;;;;;;;;;;2115639;28;20380;-45
2022/08/08 02:57:05;;;;;;;;;;;;;;;;;;2116139;28;19923;-47
2022/08/08 02:58:12;;;;;;;;;;;;;;;;;;2116067;28;19931;-46
2022/08/08 02:59:15;;;;;;;;;;;;;;;;;;2115777;28;19985;-46
2022/08/08 03:00:26;;;;;;;;;;;;;;;;;;2115762;28;20317;-44
2022/08/08 03:01:32;;;;;;;;;;;;;;;;;;2115883;28;19924;-45
2022/08/08 03:02:47;;;;;;;;;;;;;;;;;;2115907;28;20010;-46
2022/08/08 03:03:50;;;;;;;;;;;;;;;;;;2115995;28;19970;-47
2022/08/08 03:05:11;;;;;;;;;;;;;;;;;;2115725;28;19973;-47
2022/08/08 03:06:12;;;;;;;;;;;;;;;;;;2116099;28;19996;-44
2022/08/08 03:07:13;;;;;;;;;;;;;;;;;;2115765;28;19971;-45
2022/08/08 03:08:14;;;;;;;;;;;;;;;;;;2115933;28;20002;-44
2022/08/08 03:09:15;;;;;;;;;;;;;;;;;;2115568;28;19982;-44
2022/08/08 03:10:16;;;;;;;;;;;;;;;;;;2115455;28;19972;-45
2022/08/08 03:11:32;;;;;;;;;;;;;;;;;;2110461;28;20373;-44
2022/08/08 03:12:53;;;;;;;;;;;;;;;;;;2107523;28;19931;-46
2022/08/08 03:14:02;;;;;;;;;;;;;;;;;;2107059;28;19946;-46
2022/08/08 03:15:23;;;;;;;;;;;;;;;;;;2106716;28;20053;-47
2022/08/08 03:16:44;;;;;;;;;;;;;;;;;;2107732;28;19947;-48
2022/08/08 03:17:49;;;;;;;;;;;;;;;;;;2107342;28;19924;-44
2022/08/08 03:18:52;;;;;;;;;;;;;;;;;;2107615;28;19924;-46
2022/08/08 03:19:53;;;;;;;;;;;;;;;;;;2107125;28;20039;-47
2022/08/08 03:20:54;;;;;;;;;;;;;;;;;;2107105;28;19960;-47
2022/08/08 03:21:55;;;;;;;;;;;;;;;;;;2107016;28;19966;-48
2022/08/08 03:23:00;;;;;;;;;;;;;;;;;;2107365;28;20011;-47
2022/08/08 03:24:01;;;;;;;;;;;;;;;;;;2107132;28;20400;-46
2022/08/08 03:25:02;;;;;;;;;;;;;;;;;;2107064;28;20015;-47
2022/08/08 03:26:03;;;;;;;;;;;;;;;;;;2107158;28;20006;-47
2022/08/08 03:27:04;;;;;;;;;;;;;;;;;;2107048;28;19931;-46
2022/08/08 03:28:05;;;;;;;;;;;;;;;;;;2107129;28;20015;-48
2022/08/08 03:29:06;;;;;;;;;;;;;;;;;;2106959;28;20018;-46
2022/08/08 03:30:19;;;;;;;;;;;;;;;;;;2107101;28;19969;-47
2022/08/08 03:33:18;;;;;;;;;;;;;;;;;;2073025;28;20020;-46
2022/08/08 03:34:40;;;;;;;;;;;;;;;;;;2106939;28;20392;-46
2022/08/08 03:35:40;;;;;;;;;;;;;;;;;;2107229;28;20033;-44
2022/08/08 03:36:41;;;;;;;;;;;;;;;;;;2107288;28;19959;-43
2022/08/08 03:37:42;;;;;;;;;;;;;;;;;;2107052;28;19924;-45
2022/08/08 03:39:03;;;;;;;;;;;;;;;;;;2107347;28;19969;-45
2022/08/08 03:40:16;;;;;;;;;;;;;;;;;;2107142;28;19925;-43
2022/08/08 03:41:30;;;;;;;;;;;;;;;;;;2107081;28;19931;-44
2022/08/08 03:42:51;;;;;;;;;;;;;;;;;;2107105;28;19924;-43
2022/08/08 03:43:52;;;;;;;;;;;;;;;;;;2106905;28;19924;-43
2022/08/08 03:44:53;;;;;;;;;;;;;;;;;;2107123;28;19924;-45
2022/08/08 03:45:54;;;;;;;;;;;;;;;;;;2107091;28;19924;-43
2022/08/08 03:47:07;;;;;;;;;;;;;;;;;;2106954;28;19931;-43
2022/08/08 03:48:20;;;;;;;;;;;;;;;;;;2107295;28;19985;-46
2022/08/08 03:49:21;;;;;;;;;;;;;;;;;;2106955;28;20369;-46
2022/08/08 03:50:42;;;;;;;;;;;;;;;;;;2106906;28;19947;-47
2022/08/08 03:51:42;;;;;;;;;;;;;;;;;;2107058;28;20432;-46
2022/08/08 03:52:52;;;;;;;;;;;;;;;;;;2107304;28;19924;-43
2022/08/08 03:53:52;;;;;;;;;;;;;;;;;;2111981;28;19973;-44
2022/08/08 03:54:53;;;;;;;;;;;;;;;;;;2115404;28;19931;-46
2022/08/08 03:56:10;;;;;;;;;;;;;;;;;;2115606;28;19928;-46
2022/08/08 03:57:11;;;;;;;;;;;;;;;;;;2115506;28;19986;-46
2022/08/08 03:58:32;;;;;;;;;;;;;;;;;;2115476;28;19968;-46
2022/08/08 03:59:38;;;;;;;;;;;;;;;;;;2115466;28;20394;-46
2022/08/08 04:00:59;;;;;;;;;;;;;;;;;;2115243;28;20376;-46
2022/08/08 04:02:03;;;;;;;;;;;;;;;;;;2115379;28;19977;-46
2022/08/08 04:03:24;;;;;;;;;;;;;;;;;;2115578;28;19924;-46
2022/08/08 04:04:44;;;;;;;;;;;;;;;;;;2115354;28;19923;-46
2022/08/08 04:05:45;;;;;;;;;;;;;;;;;;2115373;28;20010;-46
2022/08/08 04:06:48;;;;;;;;;;;;;;;;;;2115287;28;19965;-46
2022/08/08 04:07:49;;;;;;;;;;;;;;;;;;2115344;28;20046;-46
2022/08/08 04:08:51;;;;;;;;;;;;;;;;;;2115170;28;20019;-46
2022/08/08 04:09:52;;;;;;;;;;;;;;;;;;2115236;28;20058;-46
2022/08/08 04:11:01;;;;;;;;;;;;;;;;;;2114807;28;19930;-46
2022/08/08 04:12:01;;;;;;;;;;;;;;;;;;2107103;28;19971;-45
2022/08/08 04:13:02;;;;;;;;;;;;;;;;;;2107001;28;19970;-45
2022/08/08 04:14:04;;;;;;;;;;;;;;;;;;2106708;28;19924;-44
2022/08/08 04:15:25;;;;;;;;;;;;;;;;;;2106717;28;20338;-43
2022/08/08 04:16:30;;;;;;;;;;;;;;;;;;2106801;28;19970;-44
2022/08/08 04:17:39;;;;;;;;;;;;;;;;;;2106930;28;20292;-44
2022/08/08 04:18:59;;;;;;;;;;;;;;;;;;2106826;28;19924;-43
2022/08/08 04:19:59;;;;;;;;;;;;;;;;;;2106885;28;19973;-43
2022/08/08 04:21:02;;;;;;;;;;;;;;;;;;2106577;28;20014;-43
2022/08/08 04:22:05;;;;;;;;;;;;;;;;;;2106895;28;19985;-43
2022/08/08 04:23:06;;;;;;;;;;;;;;;;;;2107186;28;20006;-44
2022/08/08 04:24:07;;;;;;;;;;;;;;;;;;2106871;28;19931;-45
2022/08/08 04:25:19;;;;;;;;;;;;;;;;;;2106664;28;20430;-44
2022/08/08 04:26:20;;;;;;;;;;;;;;;;;;2106824;28;20011;-44
2022/08/08 04:27:21;;;;;;;;;;;;;;;;;;2106870;28;19931;-43
2022/08/08 04:28:42;;;;;;;;;;;;;;;;;;2106668;28;20033;-43
2022/08/08 04:29:42;;;;;;;;;;;;;;;;;;2106874;28;19932;-46
2022/08/08 04:30:55;;;;;;;;;;;;;;;;;;2106755;28;19969;-46
2022/08/08 04:31:57;;;;;;;;;;;;;;;;;;2106898;28;19932;-44
2022/08/08 04:33:00;;;;;;;;;;;;;;;;;;2106722;28;19924;-46
2022/08/08 04:34:01;;;;;;;;;;;;;;;;;;2106874;28;19924;-44
2022/08/08 04:35:02;;;;;;;;;;;;;;;;;;2106877;28;19924;-44
2022/08/08 04:36:03;;;;;;;;;;;;;;;;;;2106624;28;19963;-44
2022/08/08 04:37:04;;;;;;;;;;;;;;;;;;2106622;28;19992;-44
2022/08/08 04:38:05;;;;;;;;;;;;;;;;;;2106681;28;20404;-45
2022/08/08 04:39:06;;;;;;;;;;;;;;;;;;2106570;28;20075;-44
2022/08/08 04:40:26;;;;;;;;;;;;;;;;;;2106784;28;19924;-44
2022/08/08 04:41:27;;;;;;;;;;;;;;;;;;2106541;28;20015;-44
2022/08/08 04:42:36;;;;;;;;;;;;;;;;;;2106731;28;20395;-44
2022/08/08 04:43:37;;;;;;;;;;;;;;;;;;2106808;28;20154;-47
2022/08/08 04:44:47;;;;;;;;;;;;;;;;;;2106761;28;19946;-47
2022/08/08 04:45:48;;;;;;;;;;;;;;;;;;2106690;28;19970;-46
2022/08/08 04:46:49;;;;;;;;;;;;;;;;;;2106943;28;19928;-46
2022/08/08 04:47:52;;;;;;;;;;;;;;;;;;2106704;28;20282;-44
2022/08/08 04:48:54;;;;;;;;;;;;;;;;;;2106583;28;19923;-44
2022/08/08 04:49:55;;;;;;;;;;;;;;;;;;2109918;28;19971;-48
2022/08/08 04:51:01;;;;;;;;;;;;;;;;;;2115133;28;19923;-46
2022/08/08 04:52:02;;;;;;;;;;;;;;;;;;2115135;28;19923;-44
2022/08/08 04:53:04;;;;;;;;;;;;;;;;;;2115075;28;19928;-44
2022/08/08 04:54:14;;;;;;;;;;;;;;;;;;2115166;28;19924;-45
2022/08/08 04:55:35;;;;;;;;;;;;;;;;;;2115228;28;19923;-46
2022/08/08 04:56:48;;;;;;;;;;;;;;;;;;2115143;28;20018;-47
2022/08/08 04:57:49;;;;;;;;;;;;;;;;;;2114946;28;20262;-47
2022/08/08 04:58:50;;;;;;;;;;;;;;;;;;2114901;28;20010;-46
2022/08/08 04:59:51;;;;;;;;;;;;;;;;;;2115023;28;19924;-46
2022/08/08 05:00:52;;;;;;;;;;;;;;;;;;2114879;28;20462;-48
2022/08/08 05:01:53;;;;;;;;;;;;;;;;;;2114777;28;19930;-47
2022/08/08 05:02:53;;;;;;;;;;;;;;;;;;2114967;28;19924;-49
2022/08/08 05:03:55;;;;;;;;;;;;;;;;;;2114858;28;19923;-50
2022/08/08 05:05:11;;;;;;;;;;;;;;;;;;2115239;28;19927;-48
2022/08/08 05:06:20;;;;;;;;;;;;;;;;;;2114848;28;20373;-47
2022/08/08 05:07:26;;;;;;;;;;;;;;;;;;2115167;28;19924;-48
2022/08/08 05:08:27;;;;;;;;;;;;;;;;;;2114850;28;19928;-48
2022/08/08 05:09:29;;;;;;;;;;;;;;;;;;2114941;28;20407;-49
2022/08/08 05:10:30;;;;;;;;;;;;;;;;;;2114914;28;19928;-46
2022/08/08 05:11:30;;;;;;;;;;;;;;;;;;2110310;28;20018;-46
2022/08/08 05:12:40;;;;;;;;;;;;;;;;;;2106324;28;19951;-46
2022/08/08 05:13:43;;;;;;;;;;;;;;;;;;2106454;28;20340;-46
2022/08/08 05:14:58;;;;;;;;;;;;;;;;;;2106335;28;20024;-46
2022/08/08 05:15:59;;;;;;;;;;;;;;;;;;2106463;28;19931;-43
2022/08/08 05:17:20;;;;;;;;;;;;;;;;;;2106468;28;20434;-44
2022/08/08 05:18:21;;;;;;;;;;;;;;;;;;2106518;28;20448;-47
2022/08/08 05:19:22;;;;;;;;;;;;;;;;;;2106803;28;20015;-46
2022/08/08 05:20:43;;;;;;;;;;;;;;;;;;2106742;28;19931;-44
2022/08/08 05:21:54;;;;;;;;;;;;;;;;;;2106167;28;20399;-44
2022/08/08 05:22:58;;;;;;;;;;;;;;;;;;2106499;28;19959;-44
2022/08/08 05:23:59;;;;;;;;;;;;;;;;;;2106285;28;20301;-43
2022/08/08 05:25:09;;;;;;;;;;;;;;;;;;2106346;28;19950;-44
2022/08/08 05:26:09;;;;;;;;;;;;;;;;;;2106300;28;20007;-46
2022/08/08 05:27:10;;;;;;;;;;;;;;;;;;2106308;28;20498;-45
2022/08/08 05:28:11;;;;;;;;;;;;;;;;;;2106384;28;19947;-44
2022/08/08 05:29:12;;;;;;;;;;;;;;;;;;2106446;28;19924;-43
2022/08/08 05:30:13;;;;;;;;;;;;;;;;;;2106192;28;19924;-44
2022/08/08 05:31:14;;;;;;;;;;;;;;;;;;2106288;28;19931;-44
2022/08/08 05:32:24;;;;;;;;;;;;;;;;;;2106549;28;20293;-44
2022/08/08 05:33:28;;;;;;;;;;;;;;;;;;2106361;28;19925;-44
2022/08/08 05:34:28;;;;;;;;;;;;;;;;;;2106480;28;20297;-44
2022/08/08 05:35:29;;;;;;;;;;;;;;;;;;2106748;28;19989;-47
2022/08/08 05:36:30;;;;;;;;;;;;;;;;;;2106384;28;20014;-45
2022/08/08 05:37:32;;;;;;;;;;;;;;;;;;2105719;28;19971;-46
2022/08/08 05:38:52;;;;;;;;;;;;;;;;;;2106280;28;19924;-46
2022/08/08 05:39:53;;;;;;;;;;;;;;;;;;2106139;28;20396;-45
2022/08/08 05:40:54;;;;;;;;;;;;;;;;;;2106376;28;19924;-46
2022/08/08 05:41:58;;;;;;;;;;;;;;;;;;2106202;28;20347;-47
2022/08/08 05:43:00;;;;;;;;;;;;;;;;;;2106445;28;19929;-47
2022/08/08 05:44:02;;;;;;;;;;;;;;;;;;2106410;28;19924;-46
2022/08/08 05:45:05;;;;;;;;;;;;;;;;;;2106312;28;19928;-46
2022/08/08 05:46:20;;;;;;;;;;;;;;;;;;2110830;28;20007;-46
2022/08/08 05:47:21;;;;;;;;;;;;;;;;;;2115129;28;20014;-45
2022/08/08 05:48:22;;;;;;;;;;;;;;;;;;2114663;28;19934;-47
2022/08/08 05:49:29;;;;;;;;;;;;;;;;;;2114633;28;19924;-46
2022/08/08 05:50:31;;;;;;;;;;;;;;;;;;2114591;28;19927;-45
2022/08/08 05:51:34;;;;;;;;;;;;;;;;;;2114717;28;19923;-46
2022/08/08 05:52:48;;;;;;;;;;;;;;;;;;2114932;28;19923;-48
2022/08/08 05:53:49;;;;;;;;;;;;;;;;;;2114746;28;19924;-48
2022/08/08 05:55:10;;;;;;;;;;;;;;;;;;2114509;28;20373;-47
2022/08/08 05:56:11;;;;;;;;;;;;;;;;;;2115013;28;19979;-44
2022/08/08 05:57:15;;;;;;;;;;;;;;;;;;2114733;28;20010;-46
2022/08/08 05:58:16;;;;;;;;;;;;;;;;;;2115062;28;20450;-46
2022/08/08 05:59:18;;;;;;;;;;;;;;;;;;2114798;28;19924;-48
2022/08/08 06:00:39;;;;;;;;;;;;;;;;;;2114775;28;19930;-45
2022/08/08 06:01:40;;;;;;;;;;;;;;;;;;2114869;28;20289;-47
2022/08/08 06:03:09;;;;;;;;;;;;;;;;;;2114735;28;20405;-46
2022/08/08 06:04:10;;;;;;;;;;;;;;;;;;2114486;28;19934;-47
2022/08/08 06:05:14;;;;;;;;;;;;;;;;;;2114878;28;20007;-47
2022/08/08 06:06:34;;;;;;;;;;;;;;;;;;2114515;28;19924;-49
2022/08/08 06:07:35;;;;;;;;;;;;;;;;;;2114598;28;19928;-46
2022/08/08 06:08:36;;;;;;;;;;;;;;;;;;2114699;28;19928;-46
2022/08/08 06:09:38;;;;;;;;;;;;;;;;;;2114682;28;19924;-45
2022/08/08 06:10:59;;;;;;;;;;;;;;;;;;2114844;28;19924;-47
2022/08/08 06:12:00;;;;;;;;;;;;;;;;;;2106418;28;19973;-44
2022/08/08 06:13:01;;;;;;;;;;;;;;;;;;2106211;28;19924;-45
2022/08/08 06:14:04;;;;;;;;;;;;;;;;;;2106567;28;19983;-46
2022/08/08 06:15:05;;;;;;;;;;;;;;;;;;2106401;28;20011;-44
2022/08/08 06:16:06;;;;;;;;;;;;;;;;;;2105897;28;19963;-44
2022/08/08 06:17:07;;;;;;;;;;;;;;;;;;2106073;28;20018;-45
2022/08/08 06:18:08;;;;;;;;;;;;;;;;;;2106015;28;19930;-45
2022/08/08 06:19:20;;;;;;;;;;;;;;;;;;2106420;28;20093;-47
2022/08/08 06:20:24;;;;;;;;;;;;;;;;;;2106201;28;19924;-46
2022/08/08 06:21:26;;;;;;;;;;;;;;;;;;2105989;28;20373;-46
2022/08/08 06:22:33;;;;;;;;;;;;;;;;;;2106247;28;19931;-46
2022/08/08 06:23:34;;;;;;;;;;;;;;;;;;2106429;28;19963;-47
2022/08/08 06:24:55;;;;;;;;;;;;;;;;;;2105926;28;20285;-44
2022/08/08 06:25:56;;;;;;;;;;;;;;;;;;2106297;28;19931;-45
2022/08/08 06:27:17;;;;;;;;;;;;;;;;;;2106036;28;19924;-46
2022/08/08 06:28:18;;;;;;;;;;;;;;;;;;2106256;28;19949;-44
2022/08/08 06:29:21;;;;;;;;;;;;;;;;;;2105978;28;19934;-44
2022/08/08 06:30:42;;;;;;;;;;;;;;;;;;2105854;28;19924;-44
2022/08/08 06:31:42;;;;;;;;;;;;;;;;;;2105858;28;20010;-43
2022/08/08 06:32:53;;;;;;;;;;;;;;;;;;2106020;28;20377;-43
2022/08/08 06:33:53;;;;;;;;;;;;;;;;;;2105862;28;19949;-43
2022/08/08 06:35:14;;;;;;;;;;;;;;;;;;2106045;28;20370;-43
2022/08/08 06:36:36;;;;;;;;;;;;;;;;;;2105791;28;20289;-43
2022/08/08 06:37:41;;;;;;;;;;;;;;;;;;2106065;28;19954;-43
2022/08/08 06:38:43;;;;;;;;;;;;;;;;;;2106114;28;20483;-43
2022/08/08 06:39:43;;;;;;;;;;;;;;;;;;2106157;28;19928;-47
2022/08/08 06:40:56;;;;;;;;;;;;;;;;;;2106030;28;19979;-45
2022/08/08 06:41:57;;;;;;;;;;;;;;;;;;2108105;28;19971;-45
2022/08/08 06:42:58;;;;;;;;;;;;;;;;;;2110224;28;19924;-44
2022/08/08 06:43:59;;;;;;;;;;;;;;;;;;2106420;28;19924;-44
2022/08/08 06:45:00;;;;;;;;;;;;;;;;;;2105856;28;19928;-45
2022/08/08 06:46:00;;;;;;;;;;;;;;;;;;2105877;28;20415;-44
2022/08/08 06:47:01;;;;;;;;;;;;;;;;;;2105796;28;19928;-43
2022/08/08 06:48:02;;;;;;;;;;;;;;;;;;2105948;28;20370;-44
2022/08/08 06:49:05;;;;;;;;;;;;;;;;;;2106332;28;19932;-44
2022/08/08 06:50:06;;;;;;;;;;;;;;;;;;2107372;28;20007;-43
2022/08/08 06:51:07;;;;;;;;;;;;;;;;;;2107350;28;20288;-43
2022/08/08 06:52:08;;;;;;;;;;;;;;;;;;2107287;28;19924;-43
2022/08/08 06:53:09;;;;;;;;;;;;;;;;;;2107275;28;20387;-44
2022/08/08 06:54:17;;;;;;;;;;;;;;;;;;2107435;28;19924;-46
2022/08/08 06:55:19;;;;;;;;;;;;;;;;;;2107474;28;20010;-47
2022/08/08 06:56:20;;;;;;;;;;;;;;;;;;2107270;28;20019;-47
2022/08/08 06:57:25;;;;;;;;;;;;;;;;;;2107494;28;19947;-44
2022/08/08 06:58:29;;;;;;;;;;;;;;;;;;2107278;28;20375;-45
2022/08/08 06:59:31;;;;;;;;;;;;;;;;;;2107691;28;19931;-43
2022/08/08 07:00:34;;;;;;;;;;;;;;;;;;2107300;28;19974;-44
2022/08/08 07:01:35;;;;;;;;;;;;;;;;;;2107422;28;19967;-46
2022/08/08 07:02:56;;;;;;;;;;;;;;;;;;2107186;28;19950;-47
2022/08/08 07:03:58;;;;;;;;;;;;;;;;;;2107433;28;19924;-44
2022/08/08 07:05:20;;;;;;;;;;;;;;;;;;2107491;28;20027;-44
2022/08/08 07:06:25;;;;;;;;;;;;;;;;;;2107479;28;19924;-43
2022/08/08 07:07:27;;;;;;;;;;;;;;;;;;2107429;28;19943;-46
2022/08/08 07:08:28;;;;;;;;;;;;;;;;;;2107303;28;19930;-46
2022/08/08 07:09:29;;;;;;;;;;;;;;;;;;2107521;28;20018;-44
2022/08/08 07:10:45;;;;;;;;;;;;;;;;;;2107311;28;20293;-45
2022/08/08 07:11:46;;;;;;;;;;;;;;;;;;2114244;28;20200;-43
2022/08/08 07:12:51;;;;;;;;;;;;;;;;;;2115738;28;20412;-43
2022/08/08 07:13:52;;;;;;;;;;;;;;;;;;2116043;28;19954;-44
2022/08/08 07:15:01;;;;;;;;;;;;;;;;;;2115699;28;20376;-44
2022/08/08 07:16:02;;;;;;;;;;;;;;;;;;2115498;28;19935;-43
2022/08/08 07:17:05;;;;;;;;;;;;;;;;;;2115549;28;20010;-44
2022/08/08 07:18:10;;;;;;;;;;;;;;;;;;2115774;28;20029;-43
2022/08/08 07:19:31;;;;;;;;;;;;;;;;;;2115816;28;19927;-45
2022/08/08 07:20:31;;;;;;;;;;;;;;;;;;2115682;28;20014;-45
2022/08/08 07:21:32;;;;;;;;;;;;;;;;;;2115883;28;20415;-45
2022/08/08 07:22:33;;;;;;;;;;;;;;;;;;2116101;28;20265;-45
2022/08/08 07:23:34;;;;;;;;;;;;;;;;;;2115598;28;19924;-44
2022/08/08 07:24:55;;;;;;;;;;;;;;;;;;2115668;28;19951;-46
2022/08/08 07:25:56;;;;;;;;;;;;;;;;;;2115545;28;19924;-44
2022/08/08 07:26:57;;;;;;;;;;;;;;;;;;2115564;28;19967;-45
2022/08/08 07:27:58;;;;;;;;;;;;;;;;;;2115630;28;20010;-44
2022/08/08 07:29:02;;;;;;;;;;;;;;;;;;2115985;28;19923;-45
2022/08/08 07:30:06;;;;;;;;;;;;;;;;;;2115519;28;19930;-43
2022/08/08 07:31:14;;;;;;;;;;;;;;;;;;2115570;28;19928;-44
2022/08/08 07:32:15;;;;;;;;;;;;;;;;;;2115567;28;19947;-44
2022/08/08 07:33:17;;;;;;;;;;;;;;;;;;2115643;28;20029;-45